createdAt,value
2023-11-15T00:01:15.563Z,96772.25
2023-11-15T00:03:43.201Z,96769.78
2023-11-15T00:06:11.435Z,96773.50
2023-11-15T00:08:39.245Z,96772.91
2023-11-15T00:11:07.456Z,96776.03
2023-11-15T00:13:35.664Z,96775.06
2023-11-15T00:16:05.672Z,96782.97
2023-11-15T00:18:33.535Z,96783.66
2023-11-15T00:21:01.253Z,96784.56
2023-11-15T00:23:28.946Z,96790.66
2023-11-15T00:25:56.547Z,96791.63
2023-11-15T00:28:24.197Z,96808.91
2023-11-15T00:30:51.767Z,96805.56
2023-11-15T00:33:20.858Z,96810.88
2023-11-15T00:35:48.682Z,96813.84
2023-11-15T00:38:16.474Z,96814.00
2023-11-15T00:40:44.247Z,96807.50
2023-11-15T00:43:11.841Z,96809.69
2023-11-15T00:45:39.490Z,96810.78
2023-11-15T00:48:07.467Z,96804.56
2023-11-15T00:50:36.512Z,96818.13
2023-11-15T00:53:05.928Z,96816.84
2023-11-15T00:55:33.506Z,96819.69
2023-11-15T00:58:01.298Z,96822.44
2023-11-15T01:00:33.650Z,96816.66
2023-11-15T01:03:02.527Z,96829.03
2023-11-15T01:05:30.747Z,96826.47
2023-11-15T01:07:59.877Z,96818.91
2023-11-15T01:10:27.526Z,96825.97
2023-11-15T01:12:55.705Z,96831.78
2023-11-15T01:15:24.070Z,96831.47
2023-11-15T01:17:51.866Z,96838.72
2023-11-15T01:20:19.897Z,96829.81
2023-11-15T01:22:47.647Z,96846.78
2023-11-15T01:25:16.724Z,96851.22
2023-11-15T01:27:44.325Z,96864.34
2023-11-15T01:30:12.688Z,96859.84
2023-11-15T01:32:40.348Z,96864.34
2023-11-15T01:35:09.099Z,96868.56
2023-11-15T01:37:36.738Z,96858.34
2023-11-15T01:40:07.626Z,96871.00
2023-11-15T01:42:36.774Z,96869.34
2023-11-15T01:45:04.886Z,96868.16
2023-11-15T01:47:32.919Z,96869.63
2023-11-15T01:50:03.560Z,96864.47
2023-11-15T01:52:31.154Z,96865.63
2023-11-15T01:54:59.817Z,96870.13
2023-11-15T01:57:27.514Z,96867.69
2023-11-15T01:59:57.022Z,96876.81
2023-11-15T02:02:24.768Z,96886.44
2023-11-15T02:04:52.346Z,96890.66
2023-11-15T02:07:20.224Z,96883.69
2023-11-15T02:09:47.917Z,96879.63
2023-11-15T02:12:15.540Z,96876.03
2023-11-15T02:14:43.318Z,96870.91
2023-11-15T02:17:12.609Z,96895.44
2023-11-15T02:19:40.232Z,96903.50
2023-11-15T02:22:07.839Z,96898.00
2023-11-15T02:24:38.398Z,96909.97
2023-11-15T02:27:06.431Z,96915.31
2023-11-15T02:29:34.078Z,96914.69
2023-11-15T02:32:01.635Z,96918.91
2023-11-15T02:34:29.173Z,96917.72
2023-11-15T02:36:56.814Z,96912.91
2023-11-15T02:39:24.425Z,96917.72
2023-11-15T02:41:53.424Z,96917.81
2023-11-15T02:44:21.004Z,96924.88
2023-11-15T02:46:48.624Z,96936.03
2023-11-15T02:49:16.262Z,96948.00
2023-11-15T02:51:43.858Z,96940.16
2023-11-15T02:54:11.390Z,96939.00
2023-11-15T02:56:38.951Z,96939.78
2023-11-15T02:59:07.862Z,96937.63
2023-11-15T03:01:35.600Z,96947.81
2023-11-15T03:04:03.648Z,96951.75
2023-11-15T03:06:31.259Z,96953.00
2023-11-15T03:08:58.859Z,96952.25
2023-11-15T03:11:26.604Z,96950.75
2023-11-15T03:13:54.308Z,96959.38
2023-11-15T03:16:23.310Z,96971.63
2023-11-15T03:18:51.180Z,96967.41
2023-11-15T03:21:18.759Z,96974.16
2023-11-15T03:23:46.368Z,96979.56
2023-11-15T03:26:13.945Z,96985.44
2023-11-15T03:28:41.530Z,96995.06
2023-11-15T03:31:11.462Z,96992.13
2023-11-15T03:33:40.548Z,96986.41
2023-11-15T03:36:10.135Z,97005.03
2023-11-15T03:38:38.310Z,97009.00
2023-11-15T03:41:06.858Z,97007.06
2023-11-15T03:43:34.506Z,97011.84
2023-11-15T03:46:02.105Z,97001.34
2023-11-15T03:48:30.752Z,96996.63
2023-11-15T03:50:59.857Z,97000.28
2023-11-15T03:53:27.521Z,96998.19
2023-11-15T03:55:55.131Z,97002.25
2023-11-15T03:58:22.673Z,97017.72
2023-11-15T04:00:50.270Z,97020.44
2023-11-15T04:03:22.578Z,97019.34
2023-11-15T04:05:51.169Z,97031.16
2023-11-15T04:08:20.469Z,97036.72
2023-11-15T04:10:49.634Z,97038.09
2023-11-15T04:13:18.762Z,97034.41
2023-11-15T04:15:46.450Z,97038.22
2023-11-15T04:18:14.260Z,97034.19
2023-11-15T04:20:41.924Z,97043.47
2023-11-15T04:23:09.625Z,97044.34
2023-11-15T04:25:38.556Z,97040.59
2023-11-15T04:28:07.100Z,97050.13
2023-11-15T04:30:34.709Z,97064.34
2023-11-15T04:33:02.352Z,97054.00
2023-11-15T04:35:30.177Z,97050.47
2023-11-15T04:37:57.867Z,97056.41
2023-11-15T04:40:27.075Z,97056.97
2023-11-15T04:42:56.011Z,97075.56
2023-11-15T04:45:23.586Z,97066.59
2023-11-15T04:47:51.424Z,97058.25
2023-11-15T04:50:19.059Z,97053.06
2023-11-15T04:52:46.730Z,97067.44
2023-11-15T04:55:14.426Z,97059.47
2023-11-15T04:57:42.165Z,97063.13
2023-11-15T05:00:12.708Z,97073.44
2023-11-15T05:02:40.615Z,97070.38
2023-11-15T05:05:08.602Z,97072.88
2023-11-15T05:07:38.001Z,97073.31
2023-11-15T05:10:06.224Z,97077.53
2023-11-15T05:12:33.909Z,97070.97
2023-11-15T05:15:01.579Z,97087.25
2023-11-15T05:17:30.758Z,97085.09
2023-11-15T05:19:58.346Z,97088.28
2023-11-15T05:22:25.908Z,97087.88
2023-11-15T05:24:55.330Z,97090.19
2023-11-15T05:27:24.093Z,97102.56
2023-11-15T05:29:51.851Z,97094.25
2023-11-15T05:32:19.606Z,97115.41
2023-11-15T05:34:48.602Z,97116.97
2023-11-15T05:37:16.285Z,97110.16
2023-11-15T05:39:44.960Z,97113.50
2023-11-15T05:42:12.531Z,97122.06
2023-11-15T05:44:40.485Z,97116.34
2023-11-15T05:47:08.166Z,97129.59
2023-11-15T05:49:35.929Z,97129.16
2023-11-15T05:52:05.757Z,97113.41
2023-11-15T05:54:33.381Z,97136.22
2023-11-15T05:57:01.138Z,97122.13
2023-11-15T05:59:28.834Z,97114.91
2023-11-15T06:01:56.623Z,97124.28
2023-11-15T06:04:24.375Z,97129.19
2023-11-15T06:06:52.154Z,97127.91
2023-11-15T06:09:22.323Z,97129.78
2023-11-15T06:11:50.010Z,97132.94
2023-11-15T06:14:18.403Z,97141.66
2023-11-15T06:16:46.036Z,97138.94
2023-11-15T06:19:13.642Z,97142.66
2023-11-15T06:21:44.116Z,97147.38
2023-11-15T06:24:13.986Z,97149.31
2023-11-15T06:26:45.443Z,97145.03
2023-11-15T06:29:13.141Z,97146.09
2023-11-15T06:31:40.728Z,97142.06
2023-11-15T06:34:10.198Z,97143.44
2023-11-15T06:36:42.217Z,97152.09
2023-11-15T06:39:13.212Z,97150.38
2023-11-15T06:41:41.192Z,97160.53
2023-11-15T06:44:11.511Z,97152.81
2023-11-15T06:46:39.971Z,97166.53
2023-11-15T06:49:11.668Z,97170.69
2023-11-15T06:51:39.617Z,97185.78
2023-11-15T06:54:08.111Z,97181.22
2023-11-15T06:56:35.848Z,97173.78
2023-11-15T06:59:03.710Z,97188.06
2023-11-15T07:01:32.796Z,97197.50
2023-11-15T07:04:00.531Z,97205.44
2023-11-15T07:06:28.655Z,97212.00
2023-11-15T07:08:57.672Z,97202.72
2023-11-15T07:11:26.099Z,97211.22
2023-11-15T07:13:54.915Z,97224.22
2023-11-15T07:16:22.758Z,97213.28
2023-11-15T07:18:51.833Z,97217.66
2023-11-15T07:21:20.641Z,97220.16
2023-11-15T07:23:49.236Z,97214.84
2023-11-15T07:26:16.904Z,97213.44
2023-11-15T07:28:44.913Z,97223.34
2023-11-15T07:31:15.646Z,97221.66
2023-11-15T07:33:44.314Z,97225.50
2023-11-15T07:36:13.663Z,97230.53
2023-11-15T07:38:41.530Z,97225.00
2023-11-15T07:41:09.183Z,97223.34
2023-11-15T07:43:36.959Z,97223.78
2023-11-15T07:46:10.913Z,97220.28
2023-11-15T07:48:38.675Z,97220.34
2023-11-15T07:51:08.362Z,97229.66
2023-11-15T07:53:38.078Z,97229.38
2023-11-15T07:56:07.367Z,97240.75
2023-11-15T07:58:35.658Z,97236.19
2023-11-15T08:01:03.334Z,97250.63
2023-11-15T08:03:31.130Z,97247.91
2023-11-15T08:05:59.113Z,97250.22
2023-11-15T08:08:26.826Z,97261.16
2023-11-15T08:10:55.828Z,97257.50
2023-11-15T08:13:24.100Z,97266.38
2023-11-15T08:15:51.843Z,97267.47
2023-11-15T08:18:19.636Z,97275.28
2023-11-15T08:20:47.968Z,97273.25
2023-11-15T08:23:16.144Z,97278.44
2023-11-15T08:25:51.488Z,97273.53
2023-11-15T08:28:21.180Z,97276.38
2023-11-15T08:30:49.327Z,97275.63
2023-11-15T08:33:17.779Z,97281.94
2023-11-15T08:35:48.185Z,97288.75
2023-11-15T08:38:15.803Z,97284.06
2023-11-15T08:40:49.988Z,97297.50
2023-11-15T08:43:18.445Z,97289.03
2023-11-15T08:45:48.418Z,97293.59
2023-11-15T08:48:18.970Z,97293.97
2023-11-15T08:50:49.120Z,97303.78
2023-11-15T08:53:19.687Z,97298.75
2023-11-15T08:55:47.269Z,97303.78
2023-11-15T08:58:15.537Z,97302.94
2023-11-15T09:00:45.125Z,97313.75
2023-11-15T09:03:15.295Z,97309.22
2023-11-15T09:05:45.227Z,97319.56
2023-11-15T09:08:12.888Z,97321.22
2023-11-15T09:10:40.449Z,97319.16
2023-11-15T09:13:09.675Z,97315.88
2023-11-15T09:15:37.405Z,97331.84
2023-11-15T09:18:07.475Z,97323.28
2023-11-15T09:20:36.539Z,97323.06
2023-11-15T09:23:10.874Z,97326.94
2023-11-15T09:25:40.849Z,97322.31
2023-11-15T09:28:08.414Z,97317.59
2023-11-15T09:30:36.534Z,97317.75
2023-11-15T09:33:06.404Z,97316.13
2023-11-15T09:35:38.790Z,97319.06
2023-11-15T09:38:12.051Z,97313.78
2023-11-15T09:40:39.836Z,97317.13
2023-11-15T09:43:07.449Z,97314.38
2023-11-15T09:45:39.891Z,97315.09
2023-11-15T09:48:10.334Z,97312.03
2023-11-15T09:50:39.510Z,97312.66
2023-11-15T09:53:07.297Z,97311.50
2023-11-15T09:55:36.284Z,97332.53
2023-11-15T09:58:04.520Z,97322.97
2023-11-15T10:00:33.207Z,97326.78
2023-11-15T10:03:01.589Z,97344.47
2023-11-15T10:05:29.573Z,97335.28
2023-11-15T10:08:10.111Z,97335.88
2023-11-15T10:10:43.022Z,97342.69
2023-11-15T10:13:14.999Z,97344.16
2023-11-15T10:15:45.047Z,97355.56
2023-11-15T10:18:15.322Z,97350.19
2023-11-15T10:20:44.439Z,97351.56
2023-11-15T10:23:14.385Z,97349.09
2023-11-15T10:25:51.915Z,97342.81
2023-11-15T10:28:23.263Z,97337.72
2023-11-15T10:31:01.497Z,97335.41
2023-11-15T10:33:33.111Z,97321.50
2023-11-15T10:36:17.632Z,97329.50
2023-11-15T10:38:49.462Z,97329.22
2023-11-15T10:41:20.801Z,97331.63
2023-11-15T10:43:49.852Z,97318.75
2023-11-15T10:46:19.904Z,97313.72
2023-11-15T10:48:50.785Z,97319.34
2023-11-15T10:51:23.348Z,97322.00
2023-11-15T10:53:51.458Z,97311.56
2023-11-15T10:56:23.341Z,97324.66
2023-11-15T10:58:52.276Z,97319.09
2023-11-15T11:01:20.518Z,97326.81
2023-11-15T11:03:50.540Z,97319.94
2023-11-15T11:06:25.252Z,97324.50
2023-11-15T11:09:03.394Z,97316.97
2023-11-15T11:11:41.659Z,97305.16
2023-11-15T11:14:16.909Z,97307.34
2023-11-15T11:16:45.429Z,97293.47
2023-11-15T11:19:15.250Z,97297.91
2023-11-15T11:22:08.769Z,97294.66
2023-11-15T11:24:39.752Z,97292.41
2023-11-15T11:27:35.045Z,97301.63
2023-11-15T11:30:21.293Z,97294.59
2023-11-15T11:32:51.800Z,97298.31
2023-11-15T11:35:36.051Z,97296.72
2023-11-15T11:38:07.733Z,97300.91
2023-11-15T11:40:40.139Z,97302.84
2023-11-15T11:43:31.114Z,97303.91
2023-11-15T11:46:13.178Z,97295.69
2023-11-15T11:48:40.862Z,97301.34
2023-11-15T11:51:09.126Z,97301.63
2023-11-15T11:53:39.509Z,97293.38
2023-11-15T11:56:11.507Z,97295.53
2023-11-15T11:58:41.222Z,97298.00
2023-11-15T12:01:11.533Z,97295.66
2023-11-15T12:03:42.294Z,97288.75
2023-11-15T12:06:12.259Z,97286.56
2023-11-15T12:08:41.210Z,97286.72
2023-11-15T12:11:11.446Z,97278.91
2023-11-15T12:13:49.459Z,97279.06
2023-11-15T12:16:18.567Z,97282.16
2023-11-15T12:18:59.074Z,97288.06
2023-11-15T12:21:27.440Z,97274.66
2023-11-15T12:23:55.062Z,97281.88
2023-11-15T12:26:23.307Z,97288.34
2023-11-15T12:28:52.787Z,97275.97
2023-11-15T12:31:20.687Z,97285.38
2023-11-15T12:33:48.698Z,97274.56
2023-11-15T12:36:17.570Z,97291.56
2023-11-15T12:38:55.960Z,97291.31
2023-11-15T12:41:24.338Z,97299.66
2023-11-15T12:44:04.279Z,97308.91
2023-11-15T12:46:32.216Z,97297.91
2023-11-15T12:49:00.217Z,97315.44
2023-11-15T12:51:27.928Z,97329.97
2023-11-15T12:53:57.075Z,97330.47
2023-11-15T12:56:25.065Z,97327.44
2023-11-15T12:58:55.410Z,97323.84
2023-11-15T13:01:24.429Z,97322.63
2023-11-15T13:04:00.585Z,97316.09
2023-11-15T13:06:30.682Z,97332.22
2023-11-15T13:09:01.510Z,97323.81
2023-11-15T13:11:30.385Z,97314.97
2023-11-15T13:13:58.873Z,97313.09
2023-11-15T13:16:28.122Z,97313.38
2023-11-15T13:18:55.995Z,97324.88
2023-11-15T13:21:27.480Z,97305.66
2023-11-15T13:23:55.560Z,97319.66
2023-11-15T13:26:25.667Z,97311.59
2023-11-15T13:28:54.006Z,97319.59
2023-11-15T13:31:24.947Z,97313.22
2023-11-15T13:33:56.870Z,97318.88
2023-11-15T13:36:26.254Z,97323.81
2023-11-15T13:38:54.261Z,97328.81
2023-11-15T13:41:24.117Z,97328.38
2023-11-15T13:43:53.187Z,97325.84
2023-11-15T13:46:23.921Z,97322.88
2023-11-15T13:48:53.777Z,97322.44
2023-11-15T13:51:24.136Z,97326.56
2023-11-15T13:53:52.048Z,97314.50
2023-11-15T13:56:20.887Z,97313.53
2023-11-15T13:58:48.928Z,97318.03
2023-11-15T14:01:16.597Z,97312.38
2023-11-15T14:03:44.662Z,97322.31
2023-11-15T14:06:12.874Z,97327.19
2023-11-15T14:11:14.448Z,97326.81
2023-11-15T14:13:43.966Z,97334.38
2023-11-15T14:16:12.393Z,97333.88
2023-11-15T14:18:40.242Z,97330.38
2023-11-15T14:21:08.562Z,97329.34
2023-11-15T14:23:36.216Z,97326.03
2023-11-15T14:26:05.773Z,97332.97
2023-11-15T14:28:34.119Z,97337.47
2023-11-15T14:31:02.653Z,97331.22
2023-11-15T14:33:30.431Z,97338.56
2023-11-15T14:35:58.116Z,97351.31
2023-11-15T14:38:25.714Z,97352.47
2023-11-15T14:40:53.851Z,97353.22
2023-11-15T14:43:24.013Z,97349.59
2023-11-15T14:45:51.685Z,97357.56
2023-11-15T14:48:19.392Z,97355.16
2023-11-15T14:50:47.881Z,97357.00
2023-11-15T14:53:31.311Z,97356.22
2023-11-15T14:55:59.267Z,97360.00
2023-11-15T14:58:28.655Z,97350.00
2023-11-15T15:00:57.191Z,97351.25
2023-11-15T15:03:25.774Z,97354.00
2023-11-15T15:05:53.647Z,97355.75
2023-11-15T15:08:22.471Z,97357.50
2023-11-15T15:10:54.311Z,97353.38
2023-11-15T15:13:22.266Z,97370.06
2023-11-15T15:15:51.425Z,97373.03
2023-11-15T15:18:22.292Z,97377.06
2023-11-15T15:20:58.838Z,97371.44
2023-11-15T15:23:26.825Z,97374.81
2023-11-15T15:25:55.277Z,97379.50
2023-11-15T15:28:22.860Z,97379.19
2023-11-15T15:30:54.388Z,97375.63
2023-11-15T15:33:22.824Z,97383.84
2023-11-15T15:35:51.016Z,97380.00
2023-11-15T15:38:18.715Z,97383.59
2023-11-15T15:40:46.376Z,97387.88
2023-11-15T15:43:16.604Z,97394.09
2023-11-15T15:45:45.889Z,97394.75
2023-11-15T15:48:15.061Z,97406.50
2023-11-15T15:50:42.714Z,97406.28
2023-11-15T15:53:10.518Z,97407.34
2023-11-15T15:55:38.256Z,97401.03
2023-11-15T15:58:06.516Z,97405.31
2023-11-15T16:00:34.204Z,97406.69
2023-11-15T16:03:01.880Z,97409.50
2023-11-15T16:05:30.962Z,97407.13
2023-11-15T16:07:58.666Z,97408.22
2023-11-15T16:10:26.314Z,97410.41
2023-11-15T16:12:53.926Z,97420.75
2023-11-15T16:15:21.727Z,97420.56
2023-11-15T16:17:49.946Z,97416.28
2023-11-15T16:20:18.361Z,97422.84
2023-11-15T16:22:47.451Z,97421.59
2023-11-15T16:25:15.140Z,97432.19
2023-11-15T16:27:42.866Z,97437.84
2023-11-15T16:30:14.142Z,97449.72
2023-11-15T16:32:42.207Z,97446.81
2023-11-15T16:35:10.563Z,97450.28
2023-11-15T16:37:40.883Z,97452.97
2023-11-15T16:40:12.667Z,97463.81
2023-11-15T16:42:40.978Z,97468.69
2023-11-15T16:45:09.816Z,97463.56
2023-11-15T16:47:37.831Z,97471.63
2023-11-15T16:50:06.181Z,97475.50
2023-11-15T16:52:34.384Z,97479.69
2023-11-15T16:55:02.238Z,97479.34
2023-11-15T16:57:31.242Z,97483.03
2023-11-15T16:59:59.859Z,97479.31
2023-11-15T17:02:27.823Z,97477.81
2023-11-15T17:04:55.579Z,97481.50
2023-11-15T17:07:23.331Z,97487.13
2023-11-15T17:09:52.449Z,97487.09
2023-11-15T17:12:20.793Z,97485.00
2023-11-15T17:14:49.855Z,97491.13
2023-11-15T17:17:17.471Z,97482.41
2023-11-15T17:19:45.841Z,97480.63
2023-11-15T17:22:14.192Z,97494.47
2023-11-15T17:24:41.824Z,97493.63
2023-11-15T17:27:09.599Z,97498.41
2023-11-15T17:29:37.559Z,97490.78
2023-11-15T17:32:07.618Z,97489.75
2023-11-15T17:34:35.330Z,97481.03
2023-11-15T17:37:03.453Z,97499.88
2023-11-15T17:39:31.183Z,97491.16
2023-11-15T17:41:59.196Z,97488.78
2023-11-15T17:44:26.852Z,97489.38
2023-11-15T17:46:54.575Z,97493.06
2023-11-15T17:49:23.537Z,97489.91
2023-11-15T17:51:51.084Z,97498.13
2023-11-15T17:54:19.886Z,97498.94
2023-11-15T17:56:47.618Z,97498.47
2023-11-15T17:59:15.464Z,97496.31
2023-11-15T18:01:43.931Z,97499.47
2023-11-15T18:04:15.204Z,97492.59
2023-11-15T18:06:44.488Z,97496.88
2023-11-15T18:09:12.854Z,97505.59
2023-11-15T18:11:40.481Z,97498.47
2023-11-15T18:14:08.127Z,97505.84
2023-11-15T18:16:36.033Z,97495.81
2023-11-15T18:19:06.317Z,97505.88
2023-11-15T18:21:34.462Z,97503.50
2023-11-15T18:24:03.546Z,97498.47
2023-11-15T18:26:32.775Z,97497.44
2023-11-15T18:29:01.920Z,97488.97
2023-11-15T18:31:29.918Z,97494.25
2023-11-15T18:33:59.064Z,97487.38
2023-11-15T18:36:27.500Z,97496.41
2023-11-15T18:38:55.663Z,97490.59
2023-11-15T18:41:24.603Z,97491.63
2023-11-15T18:43:53.948Z,97494.56
2023-11-15T18:46:22.309Z,97495.91
2023-11-15T18:48:50.062Z,97492.97
2023-11-15T18:51:23.064Z,97491.63
2023-11-15T18:53:51.653Z,97482.34
2023-11-15T18:56:19.375Z,97486.03
2023-11-15T18:58:49.886Z,97487.38
2023-11-15T19:01:18.939Z,97486.88
2023-11-15T19:03:48.850Z,97489.25
2023-11-15T19:06:16.583Z,97488.53
2023-11-15T19:08:44.175Z,97491.69
2023-11-15T19:11:11.724Z,97500.97
2023-11-15T19:13:41.222Z,97491.22
2023-11-15T19:16:10.499Z,97486.97
2023-11-15T19:18:38.289Z,97490.66
2023-11-15T19:21:06.393Z,97480.66
2023-11-15T19:23:34.072Z,97480.59
2023-11-15T19:26:01.639Z,97482.16
2023-11-15T19:28:29.252Z,97477.84
2023-11-15T19:30:56.802Z,97480.69
2023-11-15T19:33:25.896Z,97485.63
2023-11-15T19:35:53.584Z,97490.97
2023-11-15T19:38:21.188Z,97482.50
2023-11-15T19:40:48.869Z,97481.91
2023-11-15T19:43:16.566Z,97481.25
2023-11-15T19:45:45.391Z,97478.53
2023-11-15T19:48:13.246Z,97476.00
2023-11-15T19:50:42.280Z,97476.78
2023-11-15T19:53:10.561Z,97472.63
2023-11-15T19:55:39.483Z,97483.41
2023-11-15T19:58:07.063Z,97482.41
2023-11-15T20:00:36.199Z,97481.44
2023-11-15T20:03:04.699Z,97471.38
2023-11-15T20:05:32.703Z,97470.34
2023-11-15T20:08:01.611Z,97474.34
2023-11-15T20:10:29.511Z,97469.06
2023-11-15T20:12:59.048Z,97475.97
2023-11-15T20:15:27.397Z,97469.53
2023-11-15T20:17:55.087Z,97466.75
2023-11-15T20:20:24.229Z,97472.06
2023-11-15T20:22:53.213Z,97460.44
2023-11-15T20:25:23.539Z,97458.69
2023-11-15T20:27:51.109Z,97456.53
2023-11-15T20:30:21.918Z,97465.63
2023-11-15T20:32:50.141Z,97460.16
2023-11-15T20:35:18.410Z,97455.19
2023-11-15T20:37:45.994Z,97448.13
2023-11-15T20:40:16.258Z,97449.44
2023-11-15T20:42:47.936Z,97447.38
2023-11-15T20:45:16.050Z,97444.53
2023-11-15T20:47:43.904Z,97437.13
2023-11-15T20:50:12.641Z,97446.38
2023-11-15T20:52:40.573Z,97439.13
2023-11-15T20:55:09.859Z,97433.75
2023-11-15T20:57:37.843Z,97430.53
2023-11-15T21:00:13.641Z,97428.44
2023-11-15T21:02:41.833Z,97419.19
2023-11-15T21:05:11.969Z,97422.75
2023-11-15T21:07:40.098Z,97409.91
2023-11-15T21:10:09.977Z,97404.69
2023-11-15T21:12:37.852Z,97404.19
2023-11-15T21:15:10.372Z,97410.06
2023-11-15T21:17:38.544Z,97400.84
2023-11-15T21:20:11.481Z,97411.19
2023-11-15T21:22:40.745Z,97410.41
2023-11-15T21:25:12.325Z,97408.84
2023-11-15T21:27:41.017Z,97399.34
2023-11-15T21:30:12.113Z,97400.41
2023-11-15T21:32:41.192Z,97403.88
2023-11-15T21:35:10.676Z,97407.03
2023-11-15T21:37:42.707Z,97400.72
2023-11-15T21:40:12.690Z,97399.13
2023-11-15T21:42:40.489Z,97397.56
2023-11-15T21:45:12.050Z,97391.22
2023-11-15T21:47:40.387Z,97388.59
2023-11-15T21:50:11.183Z,97380.72
2023-11-15T21:52:38.999Z,97377.06
2023-11-15T21:55:08.206Z,97366.75
2023-11-15T21:57:37.292Z,97365.19
2023-11-15T22:00:07.769Z,97362.28
2023-11-15T22:02:37.098Z,97359.13
2023-11-15T22:05:06.083Z,97358.88
2023-11-15T22:07:33.698Z,97366.25
2023-11-15T22:10:01.334Z,97361.53
2023-11-15T22:12:29.008Z,97364.97
2023-11-15T22:14:56.707Z,97363.69
2023-11-15T22:17:24.304Z,97365.25
2023-11-15T22:19:53.221Z,97367.91
2023-11-15T22:22:20.885Z,97363.97
2023-11-15T22:24:48.638Z,97367.44
2023-11-15T22:27:16.314Z,97373.22
2023-11-15T22:29:44.049Z,97369.81
2023-11-15T22:32:11.594Z,97375.59
2023-11-15T22:34:39.541Z,97376.91
2023-11-15T22:37:09.825Z,97369.00
2023-11-15T22:39:37.551Z,97365.84
2023-11-15T22:42:05.935Z,97366.63
2023-11-15T22:44:33.669Z,97366.09
2023-11-15T22:47:01.204Z,97372.44
2023-11-15T22:49:28.728Z,97369.00
2023-11-15T22:51:56.326Z,97375.59
2023-11-15T22:54:25.362Z,97371.09
2023-11-15T22:56:53.268Z,97371.63
2023-11-15T22:59:20.846Z,97371.91
2023-11-15T23:01:49.527Z,97368.47
2023-11-15T23:04:18.911Z,97361.38
2023-11-15T23:06:46.860Z,97357.66
2023-11-15T23:09:15.900Z,97350.81
2023-11-15T23:11:44.845Z,97357.66
2023-11-15T23:14:12.422Z,97351.88
2023-11-15T23:16:41.360Z,97348.19
2023-11-15T23:19:10.490Z,97355.03
2023-11-15T23:21:41.352Z,97348.72
2023-11-15T23:24:13.090Z,97356.88
2023-11-15T23:26:40.681Z,97348.44
2023-11-15T23:29:11.270Z,97350.56
2023-11-15T23:31:38.861Z,97340.56
2023-11-15T23:34:07.817Z,97357.94
2023-11-15T23:36:36.199Z,97355.31
2023-11-15T23:39:06.208Z,97358.72
2023-11-15T23:41:34.422Z,97360.31
2023-11-15T23:44:03.838Z,97367.88
2023-11-15T23:46:32.788Z,97365.00
2023-11-15T23:49:00.807Z,97356.84
2023-11-15T23:51:28.400Z,97363.19
2023-11-15T23:53:55.950Z,97360.78
2023-11-15T23:56:23.535Z,97349.75
2023-11-15T23:58:51.173Z,97354.50
